This is the latest recevied weather packets stored in our database for station/object E7HQ-1. If no packets are shown the sender has not sent any weather packets the latest 10 day(s).
| Time | Temp. | Humidity | Pressure | Rain* | Wind** | Luminosity | Snow |
|---|---|---|---|---|---|---|---|
| 1778173251 | 11.67° C | 69% | 1026.3 hPa | - | - | - | - |
| 1778172350 | 11.67° C | 68% | 1026.5 hPa | - | - | - | - |
| 1778171450 | 11.67° C | 73% | 1026.6 hPa | - | - | - | - |
| 1778170550 | 11.67° C | 77% | 1026.7 hPa | - | - | - | - |
| 1778169650 | 11.67° C | 81% | 1026.5 hPa | - | - | - | - |
| 1778168750 | 11.67° C | 82% | 1026.4 hPa | - | - | - | - |
| 1778167849 | 11.67° C | 82% | 1026.3 hPa | - | - | - | - |
| 1778166949 | 12.22° C | 83% | 1026.5 hPa | - | - | - | - |
| 1778166049 | 11.67° C | 85% | 1026.4 hPa | - | - | - | - |
| 1778165148 | 11.67° C | 85% | 1026.4 hPa | - | - | - | - |
| 1778088853 | 16.11° C | 49% | 1024.1 hPa | - | - | - | - |
| 1778087927 | 16.67° C | 47% | 1023.7 hPa | - | - | - | - |
| 1778087008 | 16.67° C | 46% | 1023.6 hPa | - | - | - | - |
| 1778086089 | 17.78° C | 44% | 1023.5 hPa | - | - | - | - |
| 1778085171 | 17.78° C | 44% | 1023.6 hPa | - | - | - | - |
| 1778084252 | 18.33° C | 43% | 1023.8 hPa | - | - | - | - |
| 1778083516 | 18.89° C | 41% | 1023.5 hPa | - | - | - | - |
| 1778082403 | 19.44° C | 39% | 1023.3 hPa | - | - | - | - |
| 1778081660 | 19.44° C | 38% | 1023.2 hPa | - | - | - | - |
| 1778080731 | 20° C | 36% | 1023 hPa | - | - | - | - |
| 1778079623 | 20° C | 37% | 1023.1 hPa | - | - | - | - |
| 1778078651 | 20° C | 36% | 1023.1 hPa | - | - | - | - |
| 1778077747 | 20.56° C | 34% | 1023.2 hPa | - | - | - | - |
| 1778076841 | 21.11° C | 33% | 1023.2 hPa | - | - | - | - |
| 1778075941 | 21.67° C | 33% | 1023.1 hPa | - | - | - | - |
* Rain since midnight (hover to see other rain measurements)
** Current wind speed in m/s (hover to see current wind gust speed)